MHLC/LCE METAR and TAF weather

Enter ICAO airport designator
Station Type Date Time Source
MHLC METAR 2019/05/23 19:00 UTC NOAA

MHLC 231900Z 07010KT 9999 SCT024CB BKN070 31/24 Q1010 A2983 NOSIG


Station Type Date Time Source
MHLC Decoded METAR 2019/05/23 19:00 UTC NOAA

La Ceiba Airport , Honduras (MHLC) 15-44N 086-52W 26M
May 23, 2019 - 03:00 PM EDT / 2019.05.23 1900 UTC
Wind: from the ENE (070 degrees) at 12 MPH (10 KT):0
Visibility: greater than 7 mile(s):0
Sky conditions: mostly cloudy
Weather: Cumulonimbus clouds observed
Temperature: 87 F (31 C)
Heat index: 95.7 F (35.4 C):1
Dew Point: 75 F (24 C)
Relative Humidity: 66%
Pressure (altimeter): 29.83 in. Hg (1010 hPa)
ob: MHLC 231900Z 07010KT 9999 SCT024CB BKN070 31/24 Q1010 A2983 NOSIG
cycle: 19

Station Type Date Time Source
MHLC TAF 2019/05/23 18:27 UTC NOAA

TAF MHLC 231600Z 2318/2418 05010KT 9999 SCT026CB SCT080 TX32/2321Z TN24/2412Z
TEMPO 2320/2402 6000 -TSRA
BECMG 2402/2404 VRB02KT SCT024 SCT080
BECMG 2415/2417 35008KT

Example: see airport list